Time;durP1;ratioP1;P1;durP2;ratioP2;P2;SDS_P1;SDS_P2;PMS_P1;PMS_P2;Temp;Humidity;BMP_temperature;BMP_pressure;BME280_temperature;BME280_humidity;BME280_pressure;Samples;Min_cycle;Max_cycle;Signal;HPM_P1;HPM_P2
2022/09/12 00:01:23;;;;;;;1.70;1.60;;;18.10;99.90;;;;;;5076362;28;20438;-91
2022/09/12 00:03:57;;;;;;;1.83;1.73;;;18.10;99.90;;;;;;5075004;28;20430;-96
2022/09/12 00:06:26;;;;;;;2.17;1.97;;;18.10;99.90;;;;;;5076237;28;20395;-91
2022/09/12 00:08:58;;;;;;;2.20;2.00;;;18.10;99.90;;;;;;5075065;28;20990;-96
2022/09/12 00:11:24;;;;;;;2.93;2.00;;;18.10;99.90;;;;;;5074735;28;20422;-91
2022/09/12 00:13:54;;;;;;;2.37;2.17;;;18.10;99.90;;;;;;5074440;28;20866;-96
2022/09/12 00:16:22;;;;;;;3.00;2.13;;;18.00;99.90;;;;;;5074182;28;20422;-96
2022/09/12 00:18:48;;;;;;;2.10;1.90;;;18.00;99.90;;;;;;5074617;28;20410;-96
2022/09/12 00:21:16;;;;;;;2.30;2.10;;;18.00;99.90;;;;;;5074635;28;20433;-91
2022/09/12 00:23:42;;;;;;;2.67;1.80;;;18.00;99.90;;;;;;5074801;28;20415;-96
2022/09/12 00:26:08;;;;;;;2.30;2.10;;;17.90;99.90;;;;;;5075517;28;20446;-92
2022/09/12 00:28:34;;;;;;;2.13;2.03;;;17.90;99.90;;;;;;5075472;28;20320;-95
2022/09/12 00:31:04;;;;;;;2.20;2.00;;;17.90;99.90;;;;;;5082351;28;20430;-96
2022/09/12 00:33:31;;;;;;;2.20;2.07;;;17.90;99.90;;;;;;5078036;28;20423;-96
2022/09/12 00:35:56;;;;;;;3.53;2.53;;;17.80;99.90;;;;;;5075428;28;20431;-91
2022/09/12 00:38:22;;;;;;;2.60;2.40;;;17.80;99.90;;;;;;5076459;28;20414;-91
2022/09/12 00:40:48;;;;;;;2.40;2.20;;;17.80;99.90;;;;;;5083958;28;20591;-96
2022/09/12 00:43:34;;;;;;;2.00;1.90;;;17.80;99.90;;;;;;5074103;28;20192;-91
2022/09/12 00:46:11;;;;;;;1.97;1.87;;;17.80;99.90;;;;;;5074925;28;20418;-96
2022/09/12 00:48:42;;;;;;;2.00;1.90;;;17.90;99.90;;;;;;5074350;28;20484;-96
2022/09/12 00:51:09;;;;;;;2.10;1.90;;;17.80;99.90;;;;;;5075759;28;20432;-96
2022/09/12 00:53:37;;;;;;;3.07;2.30;;;17.80;99.90;;;;;;5075036;28;20942;-91
2022/09/12 00:56:02;;;;;;;3.57;2.40;;;17.70;99.90;;;;;;5074607;28;20441;-96
2022/09/12 00:58:38;;;;;;;4.00;2.20;;;17.70;99.90;;;;;;5076058;28;20414;-95
2022/09/12 01:01:04;;;;;;;4.10;2.73;;;17.70;99.90;;;;;;5074774;28;20197;-96
2022/09/12 01:03:30;;;;;;;2.47;2.20;;;17.60;99.90;;;;;;5075011;28;20436;-92
2022/09/12 01:06:32;;;;;;;2.43;2.23;;;17.60;99.90;;;;;;5077254;28;20248;-94
2022/09/12 01:09:02;;;;;;;3.70;2.73;;;17.60;99.90;;;;;;5077486;28;20527;-96
2022/09/12 01:11:28;;;;;;;3.00;2.43;;;17.50;99.90;;;;;;5079673;28;20398;-90
2022/09/12 01:13:54;;;;;;;2.30;2.10;;;17.50;99.90;;;;;;5077037;28;20437;-96
2022/09/12 01:16:20;;;;;;;2.80;2.27;;;17.50;99.90;;;;;;5075377;28;20497;-96
2022/09/12 01:19:07;;;;;;;2.73;2.53;;;17.50;99.90;;;;;;5074460;28;20192;-96
2022/09/12 01:22:04;;;;;;;3.10;2.80;;;17.40;99.90;;;;;;5075010;28;20181;-94
2022/09/12 01:24:57;;;;;;;6.07;3.77;;;17.40;99.90;;;;;;5076184;28;20445;-91
2022/09/12 01:27:42;;;;;;;3.00;2.70;;;17.40;99.90;;;;;;5085690;28;20488;-95
2022/09/12 01:30:35;;;;;;;3.00;2.80;;;17.40;99.90;;;;;;5091031;28;20437;-91
2022/09/12 01:33:33;;;;;;;3.00;2.80;;;17.40;99.90;;;;;;5077921;28;20481;-96
2022/09/12 01:36:28;;;;;;;3.03;2.73;;;17.40;99.90;;;;;;5077217;28;20505;-96
2022/09/12 01:39:11;;;;;;;3.20;2.90;;;17.30;99.90;;;;;;5077713;28;20421;-91
2022/09/12 01:42:03;;;;;;;2.63;2.30;;;17.30;99.90;;;;;;5077489;28;20425;-91
2022/09/12 01:44:44;;;;;;;2.90;2.70;;;17.30;99.90;;;;;;5078395;28;20426;-96
2022/09/12 01:48:04;;;;;;;4.73;2.63;;;17.30;99.90;;;;;;5077065;28;20507;-91
2022/09/12 01:50:34;;;;;;;3.57;2.50;;;17.30;99.90;;;;;;4980697;28;20521;-91
2022/09/12 01:53:02;;;;;;;3.50;3.20;;;17.20;99.90;;;;;;5076555;28;20418;-96
2022/09/12 01:55:48;;;;;;;3.10;2.90;;;17.30;99.90;;;;;;5077464;28;20445;-96
2022/09/12 01:58:26;;;;;;;3.60;3.30;;;17.20;99.90;;;;;;5089348;28;20972;-90
2022/09/12 02:01:00;;;;;;;3.37;3.07;;;17.20;99.90;;;;;;5079787;28;20839;-95
2022/09/12 02:03:58;;;;;;;4.03;3.60;;;17.20;99.90;;;;;;5082413;28;20449;-95
2022/09/12 02:06:37;;;;;;;5.33;3.10;;;17.20;99.90;;;;;;5045356;28;20918;-96
2022/09/12 02:09:11;;;;;;;6.13;3.83;;;17.20;99.90;;;;;;5082401;28;20421;-90
2022/09/12 02:11:42;;;;;;;4.53;4.10;;;17.20;99.90;;;;;;5082821;28;20435;-92
2022/09/12 02:14:23;;;;;;;4.80;4.27;;;17.10;99.90;;;;;;5081387;28;20446;-91
2022/09/12 02:17:06;;;;;;;6.40;4.33;;;17.10;99.90;;;;;;5077167;28;20429;-91
2022/09/12 02:19:56;;;;;;;5.20;4.37;;;17.00;99.90;;;;;;5077849;28;20418;-96
2022/09/12 02:22:26;;;;;;;4.57;4.10;;;17.00;99.90;;;;;;5076812;28;20422;-96
2022/09/12 02:24:57;;;;;;;7.07;4.17;;;16.90;99.90;;;;;;5077094;28;20540;-91
2022/09/12 02:27:45;;;;;;;4.80;4.33;;;16.90;99.90;;;;;;5076843;28;20485;-92
2022/09/12 02:30:16;;;;;;;6.47;4.90;;;16.80;99.90;;;;;;5077729;28;20422;-94
2022/09/12 02:33:00;;;;;;;7.80;5.80;;;16.80;99.90;;;;;;5078182;28;20464;-96
2022/09/12 02:35:44;;;;;;;6.57;5.27;;;16.80;99.90;;;;;;5085351;28;20972;-92
2022/09/12 02:38:22;;;;;;;7.23;5.87;;;16.80;99.90;;;;;;5084099;28;20823;-90
2022/09/12 02:40:48;;;;;;;6.60;5.60;;;16.70;99.90;;;;;;5082701;28;20472;-96
2022/09/12 02:43:14;;;;;;;7.40;5.60;;;16.70;99.90;;;;;;5079185;28;20441;-96
2022/09/12 02:45:40;;;;;;;7.40;5.20;;;16.70;99.90;;;;;;5077292;28;20292;-96
2022/09/12 02:48:11;;;;;;;8.20;6.40;;;16.70;99.90;;;;;;5077239;28;20227;-96
2022/09/12 02:50:37;;;;;;;7.30;5.70;;;16.70;99.90;;;;;;5080892;28;20459;-96
2022/09/12 02:53:04;;;;;;;6.73;4.83;;;16.70;99.90;;;;;;5090835;28;20434;-96
2022/09/12 02:55:35;;;;;;;7.33;6.00;;;16.70;99.90;;;;;;5077687;28;20215;-91
2022/09/12 02:58:03;;;;;;;9.80;5.97;;;16.70;99.90;;;;;;5077411;28;20433;-96
2022/09/12 03:00:37;;;;;;;7.23;6.30;;;16.70;99.90;;;;;;5077078;28;20757;-96
2022/09/12 03:03:08;;;;;;;9.70;6.27;;;16.70;99.90;;;;;;5075788;28;20434;-91
2022/09/12 03:05:50;;;;;;;7.87;6.20;;;16.70;99.90;;;;;;5075681;28;20486;-91
2022/09/12 03:08:47;;;;;;;7.50;6.77;;;16.70;99.90;;;;;;5075364;28;20542;-96
2022/09/12 03:11:33;;;;;;;9.93;6.07;;;16.70;99.90;;;;;;5079440;28;20410;-95
2022/09/12 03:14:05;;;;;;;9.10;7.03;;;16.70;99.90;;;;;;5076964;28;20406;-91
2022/09/12 03:16:59;;;;;;;9.33;6.83;;;16.70;99.90;;;;;;5076034;28;20399;-91
2022/09/12 03:19:29;;;;;;;12.57;7.40;;;16.70;99.90;;;;;;5084550;28;20434;-96
2022/09/12 03:22:16;;;;;;;8.00;6.13;;;16.70;99.90;;;;;;5075418;28;20604;-96
2022/09/12 03:24:59;;;;;;;8.27;6.37;;;16.80;99.90;;;;;;5078914;28;20442;-91
2022/09/12 03:27:35;;;;;;;10.13;7.40;;;16.80;99.90;;;;;;5082844;28;20478;-96
2022/09/12 03:30:04;;;;;;;10.40;6.60;;;16.80;99.90;;;;;;5077938;28;20417;-91
2022/09/12 03:32:48;;;;;;;9.47;6.60;;;16.90;99.90;;;;;;5079263;28;20924;-91
2022/09/12 03:35:17;;;;;;;7.33;6.23;;;16.90;99.90;;;;;;5075099;28;20440;-96
2022/09/12 03:37:43;;;;;;;7.60;6.30;;;17.00;99.90;;;;;;5076635;28;20415;-91
2022/09/12 03:40:10;;;;;;;10.07;7.00;;;17.10;99.90;;;;;;5075139;28;20430;-96
2022/09/12 03:42:36;;;;;;;8.13;7.23;;;17.10;99.90;;;;;;5075269;28;20442;-90
2022/09/12 03:45:03;;;;;;;9.53;6.77;;;17.10;99.90;;;;;;5075848;28;20438;-91
2022/09/12 03:47:28;;;;;;;11.30;7.67;;;17.10;99.90;;;;;;5076394;28;20492;-96
2022/09/12 03:49:54;;;;;;;9.37;7.47;;;17.10;99.90;;;;;;5075481;28;20433;-96
2022/09/12 03:52:20;;;;;;;10.00;7.67;;;17.10;99.90;;;;;;5074214;28;20189;-91
2022/09/12 03:54:46;;;;;;;9.70;7.07;;;17.10;99.90;;;;;;5075100;28;20220;-91
2022/09/12 03:57:11;;;;;;;8.27;7.03;;;17.10;99.90;;;;;;5076379;28;20595;-91
2022/09/12 03:59:37;;;;;;;10.00;8.80;;;17.10;99.90;;;;;;5075086;28;20547;-91
2022/09/12 04:02:03;;;;;;;8.47;7.20;;;17.00;99.90;;;;;;5075073;28;20225;-96
2022/09/12 04:04:29;;;;;;;8.87;7.37;;;17.10;99.90;;;;;;5075897;28;20538;-91
2022/09/12 04:06:55;;;;;;;10.23;7.03;;;17.10;99.90;;;;;;5079141;28;20468;-96
2022/09/12 04:09:20;;;;;;;8.67;7.77;;;17.10;99.90;;;;;;5076432;28;20438;-94
2022/09/12 04:11:46;;;;;;;9.00;8.07;;;17.10;99.90;;;;;;5075169;28;20192;-96
2022/09/12 04:14:12;;;;;;;8.37;6.53;;;17.10;99.90;;;;;;5076439;28;20279;-96
2022/09/12 04:16:37;;;;;;;8.40;7.13;;;17.00;99.90;;;;;;5079437;28;20177;-91
2022/09/12 04:19:03;;;;;;;9.37;7.90;;;17.00;99.90;;;;;;5076048;28;20186;-91
2022/09/12 04:21:29;;;;;;;8.33;7.53;;;17.00;99.90;;;;;;5058780;28;20627;-96
2022/09/12 04:23:55;;;;;;;11.27;8.43;;;16.90;99.90;;;;;;5055732;28;20423;-91
2022/09/12 04:26:21;;;;;;;9.90;7.93;;;16.90;99.90;;;;;;5069723;28;20423;-96
2022/09/12 04:28:52;;;;;;;10.63;8.60;;;16.90;99.90;;;;;;5056501;28;20212;-91
2022/09/12 04:31:21;;;;;;;15.23;9.80;;;16.80;99.90;;;;;;5059002;28;20508;-95
2022/09/12 04:33:51;;;;;;;17.50;13.57;;;16.80;99.90;;;;;;5069391;28;20818;-96
2022/09/12 04:36:17;;;;;;;13.27;10.40;;;16.80;99.90;;;;;;5055163;28;20434;-96
2022/09/12 04:38:44;;;;;;;9.50;8.57;;;16.80;99.90;;;;;;5054536;28;20426;-91
2022/09/12 04:41:34;;;;;;;9.53;8.17;;;16.80;99.90;;;;;;5054037;28;20439;-92
2022/09/12 04:44:06;;;;;;;8.40;7.60;;;16.70;99.90;;;;;;5070423;28;20915;-91
2022/09/12 04:46:35;;;;;;;13.27;8.50;;;16.70;99.90;;;;;;5056281;28;20413;-96
2022/09/12 04:49:01;;;;;;;12.27;9.37;;;16.70;99.90;;;;;;5054501;28;20463;-91
2022/09/12 04:51:30;;;;;;;9.07;7.87;;;16.70;99.90;;;;;;5055585;28;20433;-91
2022/09/12 04:53:59;;;;;;;9.90;8.17;;;16.70;99.90;;;;;;5052392;28;20418;-93
2022/09/12 04:56:26;;;;;;;8.27;7.20;;;16.70;99.90;;;;;;5053264;28;20449;-96
2022/09/12 04:58:52;;;;;;;9.87;8.27;;;16.80;99.90;;;;;;5057253;28;20450;-91
2022/09/12 05:01:20;;;;;;;9.97;7.57;;;16.80;99.90;;;;;;5070941;28;20411;-92
2022/09/12 05:03:47;;;;;;;8.93;7.90;;;16.80;99.90;;;;;;5069248;28;20863;-91
2022/09/12 05:06:19;;;;;;;12.30;8.33;;;16.90;99.90;;;;;;5080646;28;20418;-91
2022/09/12 05:08:45;;;;;;;8.37;7.40;;;16.90;99.90;;;;;;5077488;28;20962;-96
2022/09/12 05:11:16;;;;;;;10.10;8.47;;;16.90;99.90;;;;;;5076961;28;20425;-95
2022/09/12 05:13:42;;;;;;;10.10;7.73;;;17.00;99.90;;;;;;5072067;28;20443;-91
2022/09/12 05:16:10;;;;;;;8.70;7.90;;;17.00;99.90;;;;;;5068138;28;20992;-95
2022/09/12 05:18:36;;;;;;;9.00;8.10;;;17.00;99.90;;;;;;5066919;28;20491;-95
2022/09/12 05:21:06;;;;;;;8.50;7.70;;;17.10;99.90;;;;;;5046985;28;20453;-91
2022/09/12 05:23:33;;;;;;;10.27;7.73;;;17.10;99.90;;;;;;5044865;28;20562;-91
2022/09/12 05:25:59;;;;;;;9.50;8.13;;;17.20;99.90;;;;;;5043515;28;20453;-91
2022/09/12 05:28:34;;;;;;;8.23;6.90;;;17.20;99.90;;;;;;5067954;28;20476;-96
2022/09/12 05:31:05;;;;;;;8.07;7.27;;;17.20;99.90;;;;;;5057942;28;20985;-96
2022/09/12 05:33:32;;;;;;;9.57;8.40;;;17.30;99.90;;;;;;5059065;28;20426;-95
2022/09/12 05:35:58;;;;;;;11.00;8.87;;;17.30;99.90;;;;;;5068891;28;20496;-96
2022/09/12 05:38:24;;;;;;;9.90;7.80;;;17.30;99.90;;;;;;5063279;28;20491;-95
2022/09/12 05:40:51;;;;;;;9.57;7.93;;;17.40;99.90;;;;;;5060310;28;20434;-96
2022/09/12 05:43:17;;;;;;;10.60;8.83;;;17.40;99.90;;;;;;5061194;28;20437;-96
2022/09/12 05:45:43;;;;;;;797.37;402.33;;;17.40;99.90;;;;;;5078719;28;20442;-96
2022/09/12 05:48:11;;;;;;;147.50;83.20;;;17.50;99.90;;;;;;5064877;28;20482;-90
2022/09/12 05:50:37;;;;;;;21.83;15.43;;;17.50;99.90;;;;;;5061044;28;20656;-90
2022/09/12 05:53:03;;;;;;;15.40;11.80;;;17.60;99.90;;;;;;5071810;28;20430;-96
2022/09/12 05:55:30;;;;;;;12.70;8.47;;;17.60;99.90;;;;;;5063368;28;20198;-89
2022/09/12 05:57:56;;;;;;;12.00;8.50;;;17.70;99.90;;;;;;5056494;28;20186;-89
2022/09/12 06:00:21;;;;;;;9.53;8.27;;;17.80;99.90;;;;;;5055233;28;21018;-90
2022/09/12 06:02:52;;;;;;;8.70;7.37;;;17.80;99.90;;;;;;5082911;28;20447;-90
2022/09/12 06:05:17;;;;;;;10.80;8.40;;;17.80;99.90;;;;;;5060709;28;20667;-90
2022/09/12 06:07:46;;;;;;;8.20;7.30;;;17.80;99.90;;;;;;5060552;28;20481;-96
2022/09/12 06:10:12;;;;;;;8.00;7.20;;;17.90;99.90;;;;;;5063181;28;20241;-96
2022/09/12 06:12:38;;;;;;;10.77;8.30;;;17.90;99.90;;;;;;5068397;28;20434;-96
2022/09/12 06:15:04;;;;;;;12.23;8.60;;;18.00;99.90;;;;;;5051243;28;20451;-90
2022/09/12 06:17:30;;;;;;;10.17;7.77;;;18.00;99.90;;;;;;5054760;28;20434;-96
2022/09/12 06:19:56;;;;;;;9.60;7.97;;;18.10;99.90;;;;;;5075069;28;20453;-96
2022/09/12 06:22:21;;;;;;;9.73;8.00;;;18.10;99.90;;;;;;5080811;28;20183;-96
2022/09/12 06:24:47;;;;;;;10.50;8.30;;;18.20;99.90;;;;;;5084376;28;20273;-96
2022/09/12 06:27:13;;;;;;;7.73;6.97;;;18.30;99.90;;;;;;5060813;28;20798;-91
2022/09/12 06:29:38;;;;;;;9.93;7.90;;;18.30;99.90;;;;;;5073740;28;20209;-96
2022/09/12 06:32:04;;;;;;;9.23;8.20;;;18.40;99.90;;;;;;5097814;28;20181;-96
2022/09/12 06:34:30;;;;;;;7.83;7.10;;;18.40;99.90;;;;;;5063892;28;20206;-90
2022/09/12 06:36:56;;;;;;;9.63;8.00;;;18.50;99.90;;;;;;5071620;28;20248;-96
2022/09/12 06:39:23;;;;;;;10.07;8.30;;;18.50;99.90;;;;;;5077969;28;20228;-96
2022/09/12 06:41:50;;;;;;;8.70;7.20;;;18.50;99.90;;;;;;5081302;28;20432;-96
2022/09/12 06:44:20;;;;;;;8.40;6.70;;;18.60;99.90;;;;;;5060954;28;20444;-92
2022/09/12 06:46:46;;;;;;;8.97;6.90;;;18.70;99.90;;;;;;5064890;28;20433;-91
2022/09/12 06:49:13;;;;;;;7.97;6.23;;;18.70;99.90;;;;;;5068171;28;20463;-96
2022/09/12 06:51:43;;;;;;;7.80;7.00;;;18.80;99.90;;;;;;5063332;28;20218;-96
2022/09/12 06:54:12;;;;;;;7.23;6.53;;;18.80;99.90;;;;;;5060536;28;20445;-96
2022/09/12 06:56:38;;;;;;;8.00;6.93;;;18.90;99.90;;;;;;5070017;28;20433;-93
2022/09/12 06:59:03;;;;;;;7.40;5.83;;;19.00;99.90;;;;;;5057253;28;20474;-96
2022/09/12 07:01:30;;;;;;;9.13;6.20;;;19.10;99.90;;;;;;5057400;28;20278;-96
2022/09/12 07:04:01;;;;;;;9.73;6.20;;;19.10;99.90;;;;;;5077848;28;20206;-91
2022/09/12 07:06:30;;;;;;;6.67;5.90;;;19.20;99.90;;;;;;5060551;28;20972;-90
2022/09/12 07:09:02;;;;;;;6.93;6.03;;;19.20;99.90;;;;;;5065813;28;21048;-96
2022/09/12 07:11:34;;;;;;;7.50;6.77;;;19.30;99.90;;;;;;5074123;28;20504;-90
2022/09/12 07:14:02;;;;;;;6.97;5.87;;;19.30;99.90;;;;;;5071470;28;20404;-90
2022/09/12 07:16:28;;;;;;;6.57;5.80;;;19.40;99.90;;;;;;5064628;28;20415;-89
2022/09/12 07:19:00;;;;;;;6.60;5.90;;;19.50;99.90;;;;;;5061403;28;20433;-90
2022/09/12 07:21:29;;;;;;;6.33;5.23;;;19.50;99.90;;;;;;5078306;28;20413;-96
2022/09/12 07:23:56;;;;;;;6.80;6.20;;;19.60;99.90;;;;;;5072476;28;20806;-89
2022/09/12 07:26:23;;;;;;;5.07;4.53;;;19.60;99.90;;;;;;5073864;28;20416;-96
2022/09/12 07:28:52;;;;;;;6.03;5.47;;;19.60;99.90;;;;;;5062230;28;20505;-89
2022/09/12 07:31:21;;;;;;;8.00;6.27;;;19.70;99.90;;;;;;5070906;28;20402;-90
2022/09/12 07:33:49;;;;;;;6.13;5.50;;;19.80;99.90;;;;;;5073764;28;20420;-89
2022/09/12 07:36:16;;;;;;;6.27;5.50;;;19.90;99.90;;;;;;5068066;28;20434;-89
2022/09/12 07:38:42;;;;;;;6.10;5.50;;;19.90;99.90;;;;;;5066777;28;20433;-96
2022/09/12 07:41:17;;;;;;;5.67;5.17;;;19.90;99.90;;;;;;5070509;28;20995;-89
2022/09/12 07:43:46;;;;;;;5.50;4.70;;;20.00;99.90;;;;;;5078687;28;20976;-91
2022/09/12 07:46:13;;;;;;;4.73;4.33;;;20.10;99.90;;;;;;5075590;28;20424;-90
2022/09/12 07:48:40;;;;;;;5.83;5.20;;;20.10;99.90;;;;;;5077889;28;20481;-96
2022/09/12 07:51:16;;;;;;;6.40;5.60;;;20.20;99.90;;;;;;5082626;28;20482;-96
2022/09/12 07:53:44;;;;;;;6.47;4.60;;;20.20;99.90;;;;;;5069078;28;20419;-89
2022/09/12 07:56:11;;;;;;;5.03;4.53;;;20.20;99.90;;;;;;5074119;28;20445;-89
2022/09/12 07:58:39;;;;;;;5.13;4.63;;;20.30;99.90;;;;;;5071120;28;20475;-96
2022/09/12 08:01:07;;;;;;;5.63;4.40;;;20.30;99.90;;;;;;5065835;28;20846;-89
2022/09/12 08:03:36;;;;;;;5.40;4.77;;;20.30;99.90;;;;;;5066330;28;20441;-89
2022/09/12 08:06:14;;;;;;;5.57;4.40;;;20.30;99.90;;;;;;5061435;28;20449;-90
2022/09/12 08:08:40;;;;;;;5.00;4.30;;;20.40;99.90;;;;;;5064436;28;20479;-94
2022/09/12 08:11:09;;;;;;;5.50;5.00;;;20.50;99.90;;;;;;5071093;28;20445;-96
2022/09/12 08:13:50;;;;;;;4.60;4.20;;;20.60;99.90;;;;;;5070284;28;20968;-96
2022/09/12 08:16:20;;;;;;;4.80;4.30;;;20.60;99.90;;;;;;5060967;28;20433;-90
2022/09/12 08:18:46;;;;;;;4.90;4.37;;;20.60;99.90;;;;;;5064238;28;20461;-90
2022/09/12 08:21:15;;;;;;;5.07;4.50;;;20.60;99.90;;;;;;5066810;28;20423;-96
2022/09/12 08:23:45;;;;;;;5.20;4.70;;;20.60;99.90;;;;;;5069222;28;20964;-96
2022/09/12 08:26:12;;;;;;;7.67;5.13;;;20.70;99.90;;;;;;5069247;28;20782;-96
2022/09/12 08:28:46;;;;;;;6.37;5.77;;;20.70;99.90;;;;;;5086668;28;20540;-96
2022/09/12 08:31:18;;;;;;;4.97;4.47;;;20.70;99.90;;;;;;5074295;28;20414;-94
2022/09/12 08:33:47;;;;;;;5.50;4.93;;;20.70;99.90;;;;;;5075910;28;20459;-96
2022/09/12 08:36:20;;;;;;;5.43;4.87;;;21.00;99.90;;;;;;5074010;28;20490;-95
2022/09/12 08:38:48;;;;;;;5.17;4.67;;;21.40;99.90;;;;;;5060188;28;20447;-89
2022/09/12 08:41:17;;;;;;;6.40;4.80;;;21.70;99.90;;;;;;5085946;28;20422;-96
2022/09/12 08:43:52;;;;;;;6.90;5.40;;;22.10;99.90;;;;;;5068965;28;20437;-96
2022/09/12 08:46:31;;;;;;;4.60;4.10;;;22.40;99.90;;;;;;5063484;28;20823;-90
2022/09/12 08:49:01;;;;;;;5.70;4.70;;;22.60;99.90;;;;;;5069005;28;20495;-89
2022/09/12 08:53:57;;;;;;;43.37;25.23;;;22.70;99.90;;;;;;4985201;28;20971;-74
2022/09/12 08:56:26;;;;;;;37.70;21.93;;;22.60;99.90;;;;;;4969826;28;20457;-79
2022/09/12 08:58:52;;;;;;;112.57;64.90;;;22.50;99.90;;;;;;4955122;28;20540;-78
2022/09/12 09:01:30;;;;;;;62.33;35.93;;;22.40;99.90;;;;;;4975668;28;20521;-74
2022/09/12 09:04:02;;;;;;;14.90;10.73;;;22.40;99.90;;;;;;4972385;28;20545;-73
2022/09/12 09:06:53;;;;;;;10.10;7.33;;;22.30;99.90;;;;;;4976303;28;20756;-74
2022/09/12 09:09:50;;;;;;;5.40;5.00;;;22.30;99.90;;;;;;4967390;28;21005;-74
2022/09/12 09:12:31;;;;;;;6.40;5.77;;;22.30;99.90;;;;;;4986475;28;20482;-76
2022/09/12 09:15:23;;;;;;;4.83;4.43;;;22.30;99.90;;;;;;4975592;28;20516;-73
2022/09/12 09:18:00;;;;;;;6.20;4.60;;;22.30;99.90;;;;;;4971894;28;20604;-73
2022/09/12 09:20:35;;;;;;;7.03;5.00;;;22.30;99.90;;;;;;4988469;28;20416;-74
2022/09/12 09:23:26;;;;;;;5.60;4.67;;;22.30;99.90;;;;;;4980293;28;20461;-73
2022/09/12 09:25:59;;;;;;;4.60;4.20;;;22.40;99.90;;;;;;4971986;28;20422;-78
2022/09/12 09:28:44;;;;;;;5.30;4.80;;;22.40;99.90;;;;;;4983146;28;20482;-77
2022/09/12 09:31:19;;;;;;;5.20;4.60;;;22.40;99.90;;;;;;4966818;28;20461;-76
2022/09/12 09:33:55;;;;;;;5.43;4.93;;;22.40;99.90;;;;;;4974585;28;20464;-73
2022/09/12 09:36:26;;;;;;;5.07;4.40;;;22.40;99.90;;;;;;4968034;28;20492;-74
2022/09/12 09:39:10;;;;;;;4.20;3.77;;;22.40;99.90;;;;;;4985921;28;20470;-73
2022/09/12 09:41:49;;;;;;;5.20;3.77;;;22.30;99.90;;;;;;4983137;28;20484;-74
2022/09/12 09:44:18;;;;;;;3.87;3.40;;;22.40;99.90;;;;;;4987451;28;20460;-76
2022/09/12 09:46:58;;;;;;;6.63;4.77;;;22.40;99.90;;;;;;4967442;28;20433;-76
2022/09/12 09:49:32;;;;;;;4.40;4.00;;;22.40;99.90;;;;;;4967907;28;20443;-75
2022/09/12 09:52:02;;;;;;;5.00;4.50;;;22.40;99.90;;;;;;4982795;28;20488;-75
2022/09/12 09:54:44;;;;;;;5.37;4.43;;;22.40;99.90;;;;;;4977302;28;20508;-73
2022/09/12 09:57:33;;;;;;;7.67;4.57;;;22.40;99.90;;;;;;4972837;28;20844;-76
2022/09/12 10:00:20;;;;;;;6.00;4.17;;;22.40;99.90;;;;;;4984737;28;20846;-74
2022/09/12 10:03:09;;;;;;;5.53;4.50;;;22.30;99.90;;;;;;4975320;28;20469;-77
2022/09/12 10:05:49;;;;;;;4.17;3.77;;;22.30;99.90;;;;;;4990844;28;20466;-76
2022/09/12 10:08:28;;;;;;;5.43;3.67;;;22.30;99.90;;;;;;4984304;28;20489;-76
2022/09/12 10:11:04;;;;;;;4.77;3.90;;;22.30;99.90;;;;;;4961801;28;20446;-77
2022/09/12 10:13:42;;;;;;;4.33;3.20;;;22.30;99.90;;;;;;4979812;28;21143;-76
2022/09/12 10:16:19;;;;;;;5.70;3.10;;;22.30;99.90;;;;;;4987344;28;20646;-73
2022/09/12 10:18:59;;;;;;;3.60;3.30;;;22.40;99.90;;;;;;4983351;28;20465;-73
2022/09/12 10:21:38;;;;;;;5.60;3.27;;;22.40;99.90;;;;;;4971484;28;20685;-78
2022/09/12 10:24:15;;;;;;;4.40;4.00;;;22.40;99.90;;;;;;4969936;28;20544;-77
2022/09/12 10:27:01;;;;;;;4.00;3.23;;;22.40;99.90;;;;;;4980913;28;20454;-73
2022/09/12 10:29:36;;;;;;;4.23;3.57;;;22.40;99.90;;;;;;4972013;28;20466;-73
2022/09/12 10:32:08;;;;;;;4.23;3.33;;;22.40;99.90;;;;;;4972650;28;21022;-74
2022/09/12 10:34:44;;;;;;;4.33;3.93;;;22.50;99.90;;;;;;4972527;28;21057;-74
2022/09/12 10:37:24;;;;;;;3.47;3.17;;;22.50;99.90;;;;;;4975695;28;20459;-77
2022/09/12 10:39:59;;;;;;;4.67;3.57;;;22.50;99.90;;;;;;4995741;28;20450;-74
2022/09/12 10:42:45;;;;;;;3.63;3.30;;;22.50;99.90;;;;;;4974844;28;20534;-73
2022/09/12 10:45:34;;;;;;;6.33;4.00;;;22.50;99.90;;;;;;4978451;28;20453;-73
2022/09/12 10:48:26;;;;;;;4.93;3.83;;;22.50;99.90;;;;;;4987627;28;20905;-76
2022/09/12 10:50:54;;;;;;;3.37;3.07;;;22.60;99.90;;;;;;4970571;28;20440;-73
2022/09/12 10:53:29;;;;;;;5.37;3.73;;;22.60;99.90;;;;;;4970786;28;20505;-79
2022/09/12 10:56:09;;;;;;;4.17;3.40;;;22.60;99.90;;;;;;4967710;28;20447;-73
2022/09/12 10:59:18;;;;;;;7.83;3.93;;;22.60;99.90;;;;;;4968421;28;20512;-78
2022/09/12 11:01:46;;;;;;;4.60;3.83;;;22.60;99.90;;;;;;4965703;28;20506;-80
2022/09/12 11:04:57;;;;;;;4.13;3.40;;;22.60;99.90;;;;;;4972157;28;20448;-81
2022/09/12 11:07:45;;;;;;;5.43;3.77;;;22.60;99.90;;;;;;4966438;28;20544;-72
2022/09/12 11:10:28;;;;;;;3.80;3.40;;;22.60;99.90;;;;;;4966232;28;20438;-79
2022/09/12 11:13:04;;;;;;;4.07;3.50;;;22.60;99.90;;;;;;4964575;28;20491;-80
2022/09/12 11:16:17;;;;;;;3.33;3.03;;;22.60;99.90;;;;;;4984651;28;20435;-76
2022/09/12 11:19:14;;;;;;;4.50;3.60;;;22.60;99.90;;;;;;4949063;28;20850;-77
2022/09/12 11:22:35;;;;;;;3.50;3.20;;;22.60;99.90;;;;;;4973265;28;21015;-73
2022/09/12 11:25:43;;;;;;;4.87;3.60;;;22.60;99.90;;;;;;4971627;28;20964;-77
2022/09/12 11:28:30;;;;;;;3.80;3.27;;;22.70;99.90;;;;;;4971041;28;20566;-75
2022/09/12 11:31:20;;;;;;;4.57;3.00;;;22.70;99.90;;;;;;4987989;28;20799;-74
2022/09/12 11:34:08;;;;;;;4.80;3.37;;;22.70;99.90;;;;;;4974546;28;20809;-73
2022/09/12 11:37:34;;;;;;;3.33;2.80;;;22.70;99.90;;;;;;4973020;28;20455;-75
2022/09/12 11:40:24;;;;;;;3.80;3.50;;;22.70;99.90;;;;;;4971234;28;20446;-77
2022/09/12 11:43:25;;;;;;;3.83;3.43;;;22.80;99.90;;;;;;4969685;28;20463;-74
2022/09/12 11:46:00;;;;;;;2.80;2.60;;;22.80;99.90;;;;;;4985550;28;20467;-76
2022/09/12 11:49:14;;;;;;;3.60;2.87;;;22.80;99.90;;;;;;4976782;28;20959;-73
2022/09/12 11:51:58;;;;;;;3.13;2.83;;;22.90;99.90;;;;;;4890155;29;20489;-78
2022/09/12 11:54:49;;;;;;;3.97;3.10;;;23.00;99.90;;;;;;4970092;28;20444;-76
2022/09/12 11:57:24;;;;;;;3.97;3.10;;;23.10;99.90;;;;;;4967442;28;20472;-78
2022/09/12 12:00:20;;;;;;;3.63;3.10;;;23.10;99.90;;;;;;4961273;28;20504;-77
2022/09/12 12:03:07;;;;;;;2.60;2.13;;;23.20;99.90;;;;;;4965342;28;20465;-74
2022/09/12 12:05:48;;;;;;;2.70;2.50;;;23.20;99.90;;;;;;4965208;28;20442;-76
2022/09/12 12:08:25;;;;;;;3.77;2.40;;;23.20;99.90;;;;;;4966943;28;20486;-78
2022/09/12 12:11:03;;;;;;;2.47;1.90;;;23.30;99.90;;;;;;4964952;28;20473;-73
2022/09/12 12:13:43;;;;;;;2.53;2.23;;;23.30;99.90;;;;;;4965012;28;20786;-74
2022/09/12 12:16:24;;;;;;;2.70;2.50;;;23.30;99.90;;;;;;4982673;28;20457;-76
2022/09/12 12:19:01;;;;;;;2.30;2.10;;;23.30;99.90;;;;;;4959484;28;21148;-77
2022/09/12 12:21:38;;;;;;;2.87;2.60;;;23.30;99.90;;;;;;4968592;28;20575;-73
2022/09/12 12:24:07;;;;;;;2.10;1.77;;;23.30;99.90;;;;;;4969195;28;20466;-78
2022/09/12 12:26:42;;;;;;;2.57;2.37;;;23.20;99.90;;;;;;4983157;28;20624;-77
2022/09/12 12:29:20;;;;;;;2.37;2.23;;;23.20;99.90;;;;;;4956039;28;20480;-76
2022/09/12 12:32:15;;;;;;;6.57;3.03;;;23.20;99.90;;;;;;4970056;28;20813;-74
2022/09/12 12:34:50;;;;;;;3.00;2.47;;;23.20;99.90;;;;;;4966166;28;20515;-77
2022/09/12 12:37:21;;;;;;;3.33;2.73;;;23.30;99.90;;;;;;4969799;28;20479;-77
2022/09/12 12:40:01;;;;;;;2.93;2.10;;;23.20;99.90;;;;;;4967575;28;20532;-73
2022/09/12 12:42:33;;;;;;;2.57;2.37;;;23.20;99.90;;;;;;4968861;28;20458;-74
2022/09/12 12:45:28;;;;;;;2.87;2.57;;;23.20;99.90;;;;;;4968424;28;20435;-73
2022/09/12 12:48:15;;;;;;;2.40;2.20;;;23.20;99.90;;;;;;4966295;28;20855;-75
2022/09/12 12:50:49;;;;;;;3.53;2.67;;;23.20;99.90;;;;;;4985359;28;20548;-74
2022/09/12 12:53:28;;;;;;;3.20;2.23;;;23.20;99.90;;;;;;4967420;28;20482;-74
2022/09/12 12:56:01;;;;;;;2.73;1.97;;;23.30;99.90;;;;;;4963039;28;20464;-73
2022/09/12 12:58:43;;;;;;;3.00;2.40;;;23.30;99.90;;;;;;4956841;28;20463;-77
2022/09/12 13:01:21;;;;;;;2.07;1.97;;;23.30;99.90;;;;;;4966627;28;20421;-73
2022/09/12 13:04:20;;;;;;;2.77;2.10;;;23.30;99.90;;;;;;4969175;28;20570;-78
2022/09/12 13:10:56;;;;;;;2.93;2.20;;;23.40;99.90;;;;;;4969020;28;20971;-73
2022/09/12 13:14:11;;;;;;;2.60;2.30;;;23.40;99.90;;;;;;4953018;28;20468;-77
2022/09/12 13:17:18;;;;;;;3.07;2.13;;;23.30;99.90;;;;;;4955832;28;20440;-77
2022/09/12 13:20:40;;;;;;;3.10;2.60;;;23.30;99.90;;;;;;4972166;28;20511;-74
2022/09/12 13:23:26;;;;;;;2.97;2.63;;;23.30;99.90;;;;;;4928557;29;20461;-78
2022/09/12 13:25:56;;;;;;;3.23;2.30;;;23.20;99.90;;;;;;4929144;29;20967;-73
2022/09/12 13:28:35;;;;;;;3.03;2.23;;;23.20;99.90;;;;;;4968803;28;21039;-73
2022/09/12 13:31:21;;;;;;;2.90;2.70;;;23.10;99.90;;;;;;4976474;28;20807;-73
2022/09/12 13:34:06;;;;;;;2.77;2.57;;;23.10;99.90;;;;;;4976847;28;20456;-73